Time;durP1;ratioP1;P1;durP2;ratioP2;P2;SDS_P1;SDS_P2;PMS_P1;PMS_P2;Temp;Humidity;BMP_temperature;BMP_pressure;BME280_temperature;BME280_humidity;BME280_pressure;Samples;Min_cycle;Max_cycle;Signal;HPM_P1;HPM_P2
2023/06/13 00:02:02;;;;;;;;;;;19.70;49.90;;;;;;5048343;28;19934;-80
2023/06/13 00:04:30;;;;;;;;;;;19.60;51.20;;;;;;5047169;28;19935;-81
2023/06/13 00:06:57;;;;;;;;;;;19.50;51.00;;;;;;5051357;28;20387;-81
2023/06/13 00:09:24;;;;;;;;;;;19.60;50.50;;;;;;5047376;28;20218;-81
2023/06/13 00:11:50;;;;;;;;;;;19.60;50.60;;;;;;5050771;28;19917;-81
2023/06/13 00:14:16;;;;;;;;;;;19.60;50.40;;;;;;5044173;28;19967;-81
2023/06/13 00:16:47;;;;;;;;;;;19.50;51.30;;;;;;5055600;28;19917;-81
2023/06/13 00:19:13;;;;;;;;;;;19.40;51.90;;;;;;5055486;28;19963;-81
2023/06/13 00:21:38;;;;;;;;;;;19.30;53.00;;;;;;5057802;28;20330;-81
2023/06/13 00:24:41;;;;;;;;;;;19.30;51.90;;;;;;5055983;28;19958;-81
2023/06/13 00:27:07;;;;;;;;;;;19.20;51.90;;;;;;5036847;28;19913;-81
2023/06/13 00:29:32;;;;;;;;;;;19.10;52.40;;;;;;5060564;28;20241;-81
2023/06/13 00:31:57;;;;;;;;;;;19.10;52.20;;;;;;5059241;28;19924;-80
2023/06/13 00:34:23;;;;;;;;;;;19.00;53.50;;;;;;5060099;28;20384;-81
2023/06/13 00:36:49;;;;;;;;;;;18.90;52.90;;;;;;5061752;28;19921;-81
2023/06/13 00:39:15;;;;;;;;;;;18.80;53.80;;;;;;5054974;28;20249;-81
2023/06/13 00:41:40;;;;;;;;;;;18.70;53.40;;;;;;5056557;28;19913;-80
2023/06/13 00:44:06;;;;;;;;;;;18.70;54.40;;;;;;5059112;28;19970;-81
2023/06/13 00:46:34;;;;;;;;;;;18.70;54.80;;;;;;5057236;28;19924;-81
2023/06/13 00:49:00;;;;;;;;;;;18.60;55.00;;;;;;5053541;28;19920;-81
2023/06/13 00:51:27;;;;;;;;;;;18.70;54.70;;;;;;5059790;28;20011;-81
2023/06/13 00:53:53;;;;;;;;;;;18.60;54.90;;;;;;5059174;28;19971;-81
2023/06/13 00:56:18;;;;;;;;;;;18.60;55.00;;;;;;5058045;28;20098;-81
2023/06/13 00:58:44;;;;;;;;;;;18.50;55.60;;;;;;5054297;28;19945;-81
2023/06/13 01:01:10;;;;;;;;;;;18.50;55.30;;;;;;5053005;28;20043;-81
2023/06/13 01:03:36;;;;;;;;;;;18.50;55.40;;;;;;5055921;28;19916;-81
2023/06/13 01:06:02;;;;;;;;;;;18.50;55.80;;;;;;5059034;28;19917;-81
2023/06/13 01:08:28;;;;;;;;;;;18.40;54.80;;;;;;5056483;28;19943;-80
2023/06/13 01:11:02;;;;;;;;;;;18.40;54.80;;;;;;5056487;28;20441;-81
2023/06/13 01:13:29;;;;;;;;;;;18.50;54.60;;;;;;5044529;28;19920;-81
2023/06/13 01:15:59;;;;;;;;;;;18.30;55.20;;;;;;5056978;28;19917;-81
2023/06/13 01:18:24;;;;;;;;;;;18.40;54.60;;;;;;5059205;28;20333;-81
2023/06/13 01:20:56;;;;;;;;;;;18.30;55.20;;;;;;5058582;28;19931;-81
2023/06/13 01:23:21;;;;;;;;;;;18.40;54.90;;;;;;5055522;28;19913;-80
2023/06/13 01:26:13;;;;;;;;;;;18.40;54.70;;;;;;5058010;28;19948;-80
2023/06/13 01:28:41;;;;;;;;;;;18.30;54.70;;;;;;5048423;28;19913;-81
2023/06/13 01:31:07;;;;;;;;;;;18.20;55.20;;;;;;5055814;28;19924;-80
2023/06/13 01:33:33;;;;;;;;;;;18.50;54.30;;;;;;5053686;28;19916;-80
2023/06/13 01:35:58;;;;;;;;;;;18.40;54.50;;;;;;5057730;28;19913;-80
2023/06/13 01:38:24;;;;;;;;;;;18.30;54.40;;;;;;5056601;28;19916;-80
2023/06/13 01:40:50;;;;;;;;;;;18.50;54.10;;;;;;5057527;28;19979;-81
2023/06/13 01:43:15;;;;;;;;;;;18.30;55.00;;;;;;5057161;28;19909;-81
2023/06/13 01:45:41;;;;;;;;;;;18.10;55.20;;;;;;5054968;28;19986;-81
2023/06/13 01:48:09;;;;;;;;;;;18.20;55.40;;;;;;5056580;28;20011;-80
2023/06/13 01:50:56;;;;;;;;;;;18.10;55.50;;;;;;5056207;28;19976;-80
2023/06/13 01:53:28;;;;;;;;;;;18.00;56.40;;;;;;5072494;28;19985;-80
2023/06/13 01:55:58;;;;;;;;;;;17.90;56.10;;;;;;5068595;28;19923;-80
2023/06/13 01:58:33;;;;;;;;;;;18.00;55.60;;;;;;5052900;28;20011;-80
2023/06/13 02:01:00;;;;;;;;;;;18.10;55.40;;;;;;5057281;28;20262;-81
2023/06/13 02:03:27;;;;;;;;;;;18.00;56.80;;;;;;5056973;28;20050;-80
2023/06/13 02:05:52;;;;;;;;;;;18.10;55.50;;;;;;5054855;28;20142;-81
2023/06/13 02:08:18;;;;;;;;;;;18.00;56.40;;;;;;5049827;28;20356;-80
2023/06/13 02:10:44;;;;;;;;;;;18.00;56.40;;;;;;5058101;28;19913;-80
2023/06/13 02:13:10;;;;;;;;;;;18.00;56.00;;;;;;5048347;28;19913;-80
2023/06/13 02:15:35;;;;;;;;;;;17.80;57.40;;;;;;5036620;28;20054;-80
2023/06/13 02:18:00;;;;;;;;;;;17.90;56.50;;;;;;5037585;28;19971;-80
2023/06/13 02:20:26;;;;;;;;;;;17.80;56.70;;;;;;5072620;28;19972;-80
2023/06/13 02:22:51;;;;;;;;;;;17.90;56.20;;;;;;5059012;28;19920;-80
2023/06/13 02:25:18;;;;;;;;;;;17.80;56.70;;;;;;5060881;28;19912;-80
2023/06/13 02:27:43;;;;;;;;;;;17.80;57.40;;;;;;5073287;28;19936;-80
2023/06/13 02:30:09;;;;;;;;;;;17.80;56.70;;;;;;5073806;28;19906;-80
2023/06/13 02:32:39;;;;;;;;;;;17.60;57.40;;;;;;5072651;28;19912;-80
2023/06/13 02:35:07;;;;;;;;;;;17.50;58.00;;;;;;5075168;28;19955;-80
2023/06/13 02:37:33;;;;;;;;;;;17.50;57.60;;;;;;5071300;28;19952;-80
2023/06/13 02:39:58;;;;;;;;;;;17.60;57.30;;;;;;5047112;28;19974;-80
2023/06/13 02:42:26;;;;;;;;;;;17.60;58.00;;;;;;5052246;28;19920;-80
2023/06/13 02:44:51;;;;;;;;;;;17.60;57.20;;;;;;5052507;28;19917;-80
2023/06/13 02:47:19;;;;;;;;;;;17.60;57.60;;;;;;5052286;28;19917;-80
2023/06/13 02:49:44;;;;;;;;;;;17.50;58.10;;;;;;5049450;28;20015;-80
2023/06/13 02:52:10;;;;;;;;;;;17.50;58.20;;;;;;5052277;28;19978;-80
2023/06/13 02:54:35;;;;;;;;;;;17.40;58.30;;;;;;5048034;28;19917;-81
2023/06/13 02:57:01;;;;;;;;;;;17.30;59.00;;;;;;5051264;28;19970;-80
2023/06/13 02:59:27;;;;;;;;;;;17.30;58.30;;;;;;5050277;28;20388;-80
2023/06/13 03:01:52;;;;;;;;;;;17.50;57.80;;;;;;5052065;28;19909;-81
2023/06/13 03:04:18;;;;;;;;;;;17.50;57.50;;;;;;5051571;28;20003;-81
2023/06/13 03:06:44;;;;;;;;;;;17.40;57.90;;;;;;5050310;28;19928;-80
2023/06/13 03:09:11;;;;;;;;;;;17.40;58.20;;;;;;5047317;28;19913;-80
2023/06/13 03:11:36;;;;;;;;;;;17.30;58.20;;;;;;5050013;28;19925;-81
2023/06/13 03:14:02;;;;;;;;;;;17.40;57.80;;;;;;5051172;28;20295;-81
2023/06/13 03:16:28;;;;;;;;;;;17.30;58.60;;;;;;5049794;28;19909;-81
2023/06/13 03:18:54;;;;;;;;;;;17.40;57.70;;;;;;5047594;28;19916;-81
2023/06/13 03:21:20;;;;;;;;;;;17.30;59.00;;;;;;5046715;28;19920;-81
2023/06/13 03:23:46;;;;;;;;;;;17.20;58.20;;;;;;5047778;28;20296;-81
2023/06/13 03:26:11;;;;;;;;;;;17.20;59.00;;;;;;5048626;28;19913;-80
2023/06/13 03:28:37;;;;;;;;;;;17.20;58.40;;;;;;5050610;28;20237;-80
2023/06/13 03:31:02;;;;;;;;;;;17.10;58.90;;;;;;5049826;28;20376;-81
2023/06/13 03:33:28;;;;;;;;;;;17.20;58.60;;;;;;5049653;28;19990;-80
2023/06/13 03:35:53;;;;;;;;;;;17.10;59.30;;;;;;5058043;28;19920;-80
2023/06/13 03:38:19;;;;;;;;;;;17.00;59.20;;;;;;5044440;28;20437;-81
2023/06/13 03:40:45;;;;;;;;;;;17.00;59.60;;;;;;5050792;28;19956;-81
2023/06/13 03:43:10;;;;;;;;;;;17.00;59.90;;;;;;5053668;28;19955;-80
2023/06/13 03:45:36;;;;;;;;;;;17.00;59.10;;;;;;5051415;28;19917;-80
2023/06/13 03:48:02;;;;;;;;;;;17.00;59.20;;;;;;5051155;28;19916;-80
2023/06/13 03:50:27;;;;;;;;;;;16.90;60.10;;;;;;5049729;28;19917;-80
2023/06/13 03:52:52;;;;;;;;;;;16.90;59.90;;;;;;5050835;28;20342;-80
2023/06/13 03:55:18;;;;;;;;;;;16.90;59.70;;;;;;5052433;28;19980;-80
2023/06/13 03:57:44;;;;;;;;;;;16.90;59.90;;;;;;5050817;28;19924;-81
2023/06/13 04:00:10;;;;;;;;;;;16.90;60.00;;;;;;5051698;28;20424;-80
2023/06/13 04:02:36;;;;;;;;;;;16.80;60.60;;;;;;5042566;28;19909;-80
2023/06/13 04:05:02;;;;;;;;;;;16.80;60.30;;;;;;5050808;28;19928;-80
2023/06/13 04:07:33;;;;;;;;;;;16.80;60.30;;;;;;5050093;28;19991;-81
2023/06/13 04:09:58;;;;;;;;;;;16.80;60.30;;;;;;5052001;28;20376;-80
2023/06/13 04:12:24;;;;;;;;;;;16.80;60.50;;;;;;5050405;28;19920;-80
2023/06/13 04:14:49;;;;;;;;;;;16.80;60.80;;;;;;5047615;28;20349;-80
2023/06/13 04:17:14;;;;;;;;;;;16.90;60.50;;;;;;5049992;28;19952;-80
2023/06/13 04:19:40;;;;;;;;;;;16.80;60.40;;;;;;5053224;28;19909;-80
2023/06/13 04:22:07;;;;;;;;;;;16.80;61.00;;;;;;5047327;28;19923;-79
2023/06/13 04:24:32;;;;;;;;;;;16.90;60.70;;;;;;5052571;28;20254;-80
2023/06/13 04:26:58;;;;;;;;;;;16.80;61.20;;;;;;5047691;28;19916;-80
2023/06/13 04:29:25;;;;;;;;;;;16.90;61.00;;;;;;5054043;28;19917;-80
2023/06/13 04:31:50;;;;;;;;;;;16.90;61.00;;;;;;5049506;28;19913;-79
2023/06/13 04:34:18;;;;;;;;;;;17.00;61.10;;;;;;5053227;28;19917;-79
2023/06/13 04:36:44;;;;;;;;;;;17.00;60.90;;;;;;5049058;28;19991;-79
2023/06/13 04:39:09;;;;;;;;;;;17.10;60.80;;;;;;5052135;28;20383;-80
2023/06/13 04:41:37;;;;;;;;;;;17.10;61.40;;;;;;5048284;28;19917;-80
2023/06/13 04:44:09;;;;;;;;;;;17.10;60.90;;;;;;5049922;28;19968;-80
2023/06/13 04:46:35;;;;;;;;;;;17.30;60.60;;;;;;5049277;28;19916;-80
2023/06/13 04:49:04;;;;;;;;;;;17.20;61.10;;;;;;5053828;28;20466;-80
2023/06/13 04:51:32;;;;;;;;;;;17.30;60.80;;;;;;5052011;28;19979;-82
2023/06/13 04:53:58;;;;;;;;;;;17.30;61.30;;;;;;5051530;28;19920;-79
2023/06/13 04:56:24;;;;;;;;;;;17.40;61.00;;;;;;5044436;28;19923;-80
2023/06/13 04:58:50;;;;;;;;;;;17.50;61.20;;;;;;5052444;28;19962;-82
2023/06/13 05:01:17;;;;;;;;;;;17.50;60.40;;;;;;5048409;28;19927;-81
2023/06/13 05:03:45;;;;;;;;;;;17.60;60.20;;;;;;5050529;28;19932;-81
2023/06/13 05:06:12;;;;;;;;;;;17.70;60.80;;;;;;5057495;28;19978;-81
2023/06/13 05:08:37;;;;;;;;;;;17.70;61.40;;;;;;5057837;28;19953;-78
2023/06/13 05:11:03;;;;;;;;;;;17.70;60.80;;;;;;5055099;28;19983;-81
2023/06/13 05:13:28;;;;;;;;;;;17.80;61.20;;;;;;5061750;28;20357;-81
2023/06/13 05:15:55;;;;;;;;;;;17.90;60.00;;;;;;5060473;28;19909;-80
2023/06/13 05:18:24;;;;;;;;;;;18.00;60.10;;;;;;5054668;28;19944;-81
2023/06/13 05:20:50;;;;;;;;;;;18.10;60.30;;;;;;5060599;28;19943;-80
2023/06/13 05:23:15;;;;;;;;;;;18.20;59.70;;;;;;5053537;28;19913;-80
2023/06/13 05:25:41;;;;;;;;;;;18.30;59.00;;;;;;5055867;28;19917;-81
2023/06/13 05:28:06;;;;;;;;;;;18.50;58.60;;;;;;5050397;28;20387;-82
2023/06/13 05:30:32;;;;;;;;;;;18.50;58.80;;;;;;5046382;28;20256;-79
2023/06/13 05:32:58;;;;;;;;;;;18.40;58.90;;;;;;5050226;28;19924;-80
2023/06/13 05:35:23;;;;;;;;;;;18.40;58.30;;;;;;5051911;28;19909;-80
2023/06/13 05:37:49;;;;;;;;;;;18.60;58.90;;;;;;5045349;28;19935;-80
2023/06/13 05:40:15;;;;;;;;;;;18.60;58.30;;;;;;5049261;28;20398;-81
2023/06/13 05:42:40;;;;;;;;;;;18.60;58.60;;;;;;5050667;28;19913;-79
2023/06/13 05:45:07;;;;;;;;;;;18.70;58.70;;;;;;5049979;28;20491;-80
2023/06/13 05:47:32;;;;;;;;;;;18.80;58.10;;;;;;5053403;28;19920;-79
2023/06/13 05:49:58;;;;;;;;;;;19.00;57.60;;;;;;5053388;28;19924;-80
2023/06/13 05:52:24;;;;;;;;;;;19.10;57.60;;;;;;5054613;28;19917;-81
2023/06/13 05:54:50;;;;;;;;;;;19.30;57.00;;;;;;5077822;23;19924;-82
2023/06/13 05:57:15;;;;;;;;;;;19.40;57.20;;;;;;5068587;28;19917;-83
2023/06/13 05:59:41;;;;;;;;;;;19.30;57.40;;;;;;5066943;28;19909;-82
2023/06/13 06:02:07;;;;;;;;;;;19.40;58.60;;;;;;5065416;28;19916;-83
2023/06/13 06:04:32;;;;;;;;;;;19.40;57.60;;;;;;5050257;28;19912;-82
2023/06/13 06:06:58;;;;;;;;;;;19.40;57.20;;;;;;5062840;28;19912;-82
2023/06/13 06:09:23;;;;;;;;;;;19.50;57.10;;;;;;5072612;28;19916;-82
2023/06/13 06:11:50;;;;;;;;;;;19.50;57.40;;;;;;5052401;28;19928;-83
2023/06/13 06:14:15;;;;;;;;;;;19.50;55.80;;;;;;5062666;28;20325;-80
2023/06/13 06:16:41;;;;;;;;;;;19.60;57.20;;;;;;5087525;28;19913;-80
2023/06/13 06:19:06;;;;;;;;;;;19.60;57.00;;;;;;5059729;28;19912;-81
2023/06/13 06:21:32;;;;;;;;;;;19.70;56.20;;;;;;5049176;28;19912;-81
2023/06/13 06:23:57;;;;;;;;;;;19.80;56.60;;;;;;5053627;28;20440;-80
2023/06/13 06:26:23;;;;;;;;;;;19.90;55.10;;;;;;5068479;28;19919;-83
2023/06/13 06:28:49;;;;;;;;;;;20.00;55.50;;;;;;5056517;28;20023;-85
2023/06/13 06:31:15;;;;;;;;;;;20.10;55.20;;;;;;5070034;28;19948;-82
2023/06/13 06:33:40;;;;;;;;;;;20.10;55.50;;;;;;5057645;28;20302;-82
2023/06/13 06:36:06;;;;;;;;;;;20.20;54.10;;;;;;5069246;28;19921;-82
2023/06/13 06:38:31;;;;;;;;;;;20.30;55.10;;;;;;5054361;28;20286;-83
2023/06/13 06:40:57;;;;;;;;;;;20.40;54.70;;;;;;5072562;28;19908;-82
2023/06/13 06:43:22;;;;;;;;;;;20.50;54.00;;;;;;5065203;28;19935;-82
2023/06/13 06:45:48;;;;;;;;;;;20.60;54.10;;;;;;5051243;28;19970;-83
2023/06/13 06:48:13;;;;;;;;;;;20.70;52.30;;;;;;5065333;28;19955;-82
2023/06/13 06:50:39;;;;;;;;;;;20.90;51.30;;;;;;5062736;28;19923;-82
2023/06/13 06:53:04;;;;;;;;;;;21.00;51.70;;;;;;5046610;28;20389;-82
2023/06/13 06:55:30;;;;;;;;;;;21.00;51.70;;;;;;5061808;28;20378;-82
2023/06/13 06:57:55;;;;;;;;;;;20.90;52.50;;;;;;5062319;28;20301;-81
2023/06/13 07:00:21;;;;;;;;;;;21.00;52.30;;;;;;5060342;28;20260;-82
2023/06/13 07:02:47;;;;;;;;;;;21.10;51.00;;;;;;5051805;28;19913;-81
2023/06/13 07:05:15;;;;;;;;;;;21.10;51.50;;;;;;5041880;28;19932;-83
2023/06/13 07:07:46;;;;;;;;;;;21.20;52.10;;;;;;5057948;28;19958;-83
2023/06/13 07:10:15;;;;;;;;;;;21.30;50.80;;;;;;5043483;28;19919;-82
2023/06/13 07:12:40;;;;;;;;;;;21.30;49.30;;;;;;5051494;28;20035;-83
2023/06/13 07:15:06;;;;;;;;;;;21.40;49.50;;;;;;5052570;28;20385;-83
2023/06/13 07:17:32;;;;;;;;;;;21.50;49.90;;;;;;5072274;28;19912;-83
2023/06/13 07:20:05;;;;;;;;;;;21.50;50.50;;;;;;5073790;28;19934;-84
2023/06/13 07:22:30;;;;;;;;;;;21.60;49.00;;;;;;5048519;28;19921;-82
2023/06/13 07:24:56;;;;;;;;;;;21.60;49.00;;;;;;5050034;28;19927;-84
2023/06/13 07:27:21;;;;;;;;;;;21.60;48.50;;;;;;5051170;28;19912;-84
2023/06/13 07:29:47;;;;;;;;;;;21.80;48.70;;;;;;5059361;28;19916;-82
2023/06/13 07:32:12;;;;;;;;;;;21.70;47.40;;;;;;5075361;28;20031;-84
2023/06/13 07:34:38;;;;;;;;;;;21.70;48.80;;;;;;5076749;28;19919;-83
2023/06/13 07:37:06;;;;;;;;;;;21.70;49.80;;;;;;5068452;28;20281;-83
2023/06/13 07:39:32;;;;;;;;;;;21.90;47.70;;;;;;5056078;28;20237;-84
2023/06/13 07:42:14;;;;;;;;;;;22.10;47.00;;;;;;5057742;28;19944;-86
2023/06/13 07:45:03;;;;;;;;;;;22.10;47.30;;;;;;5061861;28;20620;-84
2023/06/13 07:47:42;;;;;;;;;;;;;;;;;;;;;
2023/06/13 07:50:08;;;;;;;;;;;22.10;47.70;;;;;;5072338;28;19912;-83
2023/06/13 07:52:56;;;;;;;;;;;22.20;48.70;;;;;;5034086;28;19984;-83
2023/06/13 07:55:24;;;;;;;;;;;22.20;47.30;;;;;;5034078;28;19924;-84
2023/06/13 07:58:01;;;;;;;;;;;22.30;47.60;;;;;;5035253;28;19944;-84
2023/06/13 08:00:28;;;;;;;;;;;22.30;46.40;;;;;;5048628;28;19915;-83
2023/06/13 08:02:59;;;;;;;;;;;22.30;46.10;;;;;;5056441;28;19917;-83
2023/06/13 08:05:26;;;;;;;;;;;22.50;44.40;;;;;;5056098;28;20519;-84
2023/06/13 08:07:59;;;;;;;;;;;22.60;44.60;;;;;;5056192;28;19916;-83
2023/06/13 08:10:27;;;;;;;;;;;22.70;44.10;;;;;;5055973;28;19916;-84
2023/06/13 08:16:04;;;;;;;;;;;22.80;44.10;;;;;;5034959;28;19909;-83
2023/06/13 08:18:38;;;;;;;;;;;22.90;44.10;;;;;;5050600;28;20393;-83
2023/06/13 08:21:11;;;;;;;;;;;22.90;44.60;;;;;;5051897;28;19912;-84
2023/06/13 08:23:37;;;;;;;;;;;22.90;44.70;;;;;;5053064;28;20393;-83
2023/06/13 08:26:08;;;;;;;;;;;23.00;43.70;;;;;;5052315;28;19920;-83
2023/06/13 08:28:35;;;;;;;;;;;23.00;44.50;;;;;;5049678;28;20447;-83
2023/06/13 08:31:13;;;;;;;;;;;23.10;44.50;;;;;;5042647;28;19916;-84
2023/06/13 08:33:47;;;;;;;;;;;23.00;44.10;;;;;;5052149;28;20381;-83
2023/06/13 08:36:18;;;;;;;;;;;23.00;46.60;;;;;;5052095;28;19969;-82
2023/06/13 08:39:03;;;;;;;;;;;23.00;45.30;;;;;;5037644;28;19909;-83
2023/06/13 08:41:41;;;;;;;;;;;23.20;43.40;;;;;;5046159;28;20381;-83
2023/06/13 08:44:24;;;;;;;;;;;23.10;44.90;;;;;;5056992;28;19909;-85
2023/06/13 08:47:00;;;;;;;;;;;23.10;45.50;;;;;;5055479;28;19923;-83
2023/06/13 08:49:59;;;;;;;;;;;23.10;46.50;;;;;;5072292;28;20003;-83
2023/06/13 08:52:28;;;;;;;;;;;23.20;45.60;;;;;;5068153;28;19916;-83
2023/06/13 08:55:03;;;;;;;;;;;23.20;44.10;;;;;;5073584;28;19969;-83
2023/06/13 08:57:31;;;;;;;;;;;23.20;43.90;;;;;;5056348;28;20010;-83
2023/06/13 09:00:25;;;;;;;;;;;23.20;43.90;;;;;;5069727;28;19934;-83
2023/06/13 09:03:12;;;;;;;;;;;23.20;45.00;;;;;;5077053;28;20022;-84
2023/06/13 09:05:42;;;;;;;;;;;23.30;44.50;;;;;;5086603;28;20366;-83
2023/06/13 09:08:27;;;;;;;;;;;23.30;44.70;;;;;;5072174;28;19921;-83
2023/06/13 09:13:49;;;;;;;;;;;23.40;44.20;;;;;;5083038;28;20608;-83
2023/06/13 09:16:35;;;;;;;;;;;23.50;42.00;;;;;;5058615;28;19908;-84
2023/06/13 09:19:24;;;;;;;;;;;23.60;43.90;;;;;;5060333;28;19939;-85
2023/06/13 09:22:05;;;;;;;;;;;23.60;43.80;;;;;;5061191;28;20362;-84
2023/06/13 09:24:36;;;;;;;;;;;23.60;42.80;;;;;;5061048;28;19912;-84
2023/06/13 09:27:06;;;;;;;;;;;23.50;42.50;;;;;;5053550;28;19932;-81
2023/06/13 09:29:39;;;;;;;;;;;23.50;42.70;;;;;;5068773;28;20344;-83
2023/06/13 09:35:41;;;;;;;;;;;23.60;41.60;;;;;;5051837;28;20294;-84
2023/06/13 09:38:16;;;;;;;;;;;23.70;41.20;;;;;;5071723;28;20003;-83
2023/06/13 09:41:04;;;;;;;;;;;23.90;41.30;;;;;;5054345;28;19992;-83
2023/06/13 09:43:41;;;;;;;;;;;23.90;41.20;;;;;;5055076;28;20015;-83
2023/06/13 09:46:13;;;;;;;;;;;23.80;40.90;;;;;;5058400;28;19908;-83
2023/06/13 09:48:51;;;;;;;;;;;23.60;42.00;;;;;;5055895;28;19908;-84
2023/06/13 09:51:39;;;;;;;;;;;23.50;43.20;;;;;;5056947;28;20003;-83
2023/06/13 09:54:19;;;;;;;;;;;23.60;41.10;;;;;;5073010;28;20397;-83
2023/06/13 10:06:12;;;;;;;;;;;24.00;41.90;;;;;;5054139;28;19913;-82
2023/06/13 10:08:54;;;;;;;;;;;23.90;40.60;;;;;;5038020;28;19936;-83
2023/06/13 10:11:23;;;;;;;;;;;23.90;43.00;;;;;;5055679;28;19935;-83
2023/06/13 10:14:12;;;;;;;;;;;;;;;;;;;;;
2023/06/13 10:16:40;;;;;;;;;;;24.00;42.00;;;;;;5069226;28;19919;-84
2023/06/13 10:19:38;;;;;;;;;;;24.00;41.60;;;;;;5058309;28;20285;-85
2023/06/13 10:22:10;;;;;;;;;;;24.00;40.70;;;;;;5069872;28;20027;-83
2023/06/13 10:24:37;;;;;;;;;;;24.00;38.10;;;;;;5075398;28;19916;-84
2023/06/13 10:27:10;;;;;;;;;;;24.20;39.20;;;;;;5061687;28;19908;-82
2023/06/13 10:29:35;;;;;;;;;;;24.20;38.90;;;;;;5059727;28;19920;-83
2023/06/13 10:32:13;;;;;;;;;;;24.10;37.10;;;;;;5081639;28;19912;-83
2023/06/13 10:34:39;;;;;;;;;;;24.20;38.10;;;;;;5066295;28;19962;-81
2023/06/13 10:37:33;;;;;;;;;;;24.30;35.20;;;;;;5072939;28;19926;-82
2023/06/13 10:40:17;;;;;;;;;;;24.30;37.80;;;;;;5078679;28;19982;-83
2023/06/13 10:42:50;;;;;;;;;;;24.30;39.80;;;;;;5084468;28;19920;-82
2023/06/13 10:45:23;;;;;;;;;;;24.60;39.70;;;;;;5082404;28;19912;-83
2023/06/13 10:47:52;;;;;;;;;;;24.50;36.30;;;;;;5064469;28;20344;-81
2023/06/13 10:50:21;;;;;;;;;;;24.60;36.10;;;;;;5065081;28;19938;-82
2023/06/13 10:52:52;;;;;;;;;;;24.50;37.40;;;;;;5056063;28;19917;-82
2023/06/13 10:55:46;;;;;;;;;;;24.80;36.90;;;;;;5087645;28;19908;-82
2023/06/13 10:58:28;;;;;;;;;;;24.80;36.40;;;;;;5063982;28;20023;-86
2023/06/13 11:00:56;;;;;;;;;;;24.90;38.80;;;;;;5052572;28;19909;-84
2023/06/13 11:03:28;;;;;;;;;;;25.10;37.50;;;;;;5061517;28;20050;-82
2023/06/13 11:05:54;;;;;;;;;;;25.10;37.10;;;;;;5054576;28;19961;-82
2023/06/13 11:08:21;;;;;;;;;;;25.10;38.10;;;;;;5058292;28;19950;-81
2023/06/13 11:10:47;;;;;;;;;;;25.10;36.70;;;;;;5064885;28;19939;-82
2023/06/13 11:13:18;;;;;;;;;;;25.10;37.50;;;;;;5048689;28;21902;-82
2023/06/13 11:15:43;;;;;;;;;;;25.00;36.10;;;;;;5049438;28;19960;-83
2023/06/13 11:18:09;;;;;;;;;;;25.00;36.40;;;;;;5062856;28;20000;-83
2023/06/13 11:21:14;;;;;;;;;;;25.00;38.90;;;;;;5071356;28;19912;-84
2023/06/13 11:26:46;;;;;;;;;;;24.90;37.80;;;;;;5073626;28;19958;-81
2023/06/13 11:29:18;;;;;;;;;;;25.00;39.90;;;;;;5057440;28;19916;-83
2023/06/13 11:31:56;;;;;;;;;;;25.00;38.60;;;;;;5058542;28;19912;-82
2023/06/13 11:34:41;;;;;;;;;;;25.10;38.60;;;;;;5061365;28;20010;-84
2023/06/13 11:37:43;;;;;;;;;;;25.00;38.20;;;;;;5072238;28;19943;-82
2023/06/13 11:40:34;;;;;;;;;;;25.00;39.20;;;;;;4986804;28;19917;-83
2023/06/13 11:46:33;;;;;;;;;;;25.10;38.80;;;;;;5073963;28;20374;-84
2023/06/13 11:53:26;;;;;;;;;;;;;;;;;;;;;
2023/06/13 12:08:46;;;;;;;;;;;25.50;37.40;;;;;;5074592;28;19975;-82
2023/06/13 12:11:22;;;;;;;;;;;25.60;37.20;;;;;;5070796;28;19913;-83
2023/06/13 12:14:21;;;;;;;;;;;;;;;;;;;;;
2023/06/13 12:16:51;;;;;;;;;;;25.50;37.10;;;;;;5089145;28;20357;-83
2023/06/13 12:19:36;;;;;;;;;;;25.40;37.90;;;;;;5099004;28;20219;-83
2023/06/13 12:22:05;;;;;;;;;;;25.70;36.60;;;;;;5090707;28;19913;-83
2023/06/13 12:24:36;;;;;;;;;;;25.70;36.40;;;;;;5091870;28;19919;-82
2023/06/13 12:27:24;;;;;;;;;;;25.60;37.20;;;;;;5088677;28;19920;-87
2023/06/13 12:36:08;;;;;;;;;;;25.60;35.70;;;;;;5089263;22;19935;-85
2023/06/13 12:38:34;;;;;;;;;;;25.50;37.20;;;;;;5052886;28;19913;-84
2023/06/13 12:40:59;;;;;;;;;;;25.50;37.20;;;;;;5052950;28;19923;-87
2023/06/13 12:43:25;;;;;;;;;;;25.50;36.50;;;;;;5052444;28;19938;-84
2023/06/13 12:45:51;;;;;;;;;;;25.50;36.90;;;;;;5063960;28;19908;-85
2023/06/13 12:48:20;;;;;;;;;;;25.40;35.50;;;;;;5071820;28;19912;-85
2023/06/13 12:50:47;;;;;;;;;;;25.50;37.30;;;;;;5089380;28;19908;-84
2023/06/13 12:53:13;;;;;;;;;;;25.50;37.50;;;;;;5071601;28;20035;-85
2023/06/13 12:55:38;;;;;;;;;;;25.50;36.20;;;;;;5070808;28;19912;-82
2023/06/13 12:58:23;;;;;;;;;;;25.60;34.30;;;;;;5071969;28;19931;-82
2023/06/13 13:00:52;;;;;;;;;;;25.60;36.20;;;;;;5090681;28;19943;-83
2023/06/13 13:03:17;;;;;;;;;;;25.50;37.10;;;;;;5071399;28;19912;-84
2023/06/13 13:05:43;;;;;;;;;;;25.50;37.20;;;;;;5090761;28;19915;-83
2023/06/13 13:08:08;;;;;;;;;;;25.60;37.00;;;;;;5073053;28;19915;-84
2023/06/13 13:10:34;;;;;;;;;;;25.60;36.30;;;;;;5073123;28;19912;-83
2023/06/13 13:12:59;;;;;;;;;;;25.60;38.20;;;;;;5089055;28;19920;-86
2023/06/13 13:15:25;;;;;;;;;;;25.60;34.60;;;;;;5083693;28;19916;-85
2023/06/13 13:17:51;;;;;;;;;;;25.70;36.20;;;;;;5077518;28;19908;-83
2023/06/13 13:20:16;;;;;;;;;;;25.90;36.60;;;;;;5076520;28;19915;-83
2023/06/13 13:22:42;;;;;;;;;;;25.90;34.60;;;;;;5095685;28;19908;-82
2023/06/13 13:25:07;;;;;;;;;;;25.70;35.10;;;;;;5096307;28;19917;-82
2023/06/13 13:27:33;;;;;;;;;;;25.60;37.30;;;;;;5097844;28;20401;-83
2023/06/13 13:29:58;;;;;;;;;;;25.50;35.90;;;;;;5098623;28;20385;-85
2023/06/13 13:32:24;;;;;;;;;;;25.40;35.20;;;;;;5075956;28;19920;-82
2023/06/13 13:34:49;;;;;;;;;;;25.50;35.60;;;;;;5095402;28;19919;-83
2023/06/13 13:37:21;;;;;;;;;;;25.70;34.30;;;;;;5091347;28;19939;-82
2023/06/13 13:39:46;;;;;;;;;;;25.60;35.10;;;;;;5107575;28;19934;-83
2023/06/13 13:42:12;;;;;;;;;;;25.80;34.60;;;;;;5072751;28;19908;-83
2023/06/13 13:44:40;;;;;;;;;;;25.60;34.20;;;;;;5065504;28;19919;-85
2023/06/13 13:47:06;;;;;;;;;;;25.60;34.40;;;;;;5080874;28;19990;-84
2023/06/13 13:49:32;;;;;;;;;;;25.70;34.20;;;;;;5098839;28;19995;-83
2023/06/13 13:51:57;;;;;;;;;;;25.80;34.80;;;;;;5100298;28;20416;-83
2023/06/13 13:54:23;;;;;;;;;;;25.80;33.20;;;;;;5080622;28;19912;-81
2023/06/13 13:56:48;;;;;;;;;;;25.80;34.10;;;;;;5080653;28;19912;-84
2023/06/13 13:59:14;;;;;;;;;;;25.70;35.30;;;;;;5079400;28;19916;-83
2023/06/13 14:01:39;;;;;;;;;;;25.80;35.50;;;;;;5094683;28;20373;-81
2023/06/13 14:04:05;;;;;;;;;;;25.90;34.10;;;;;;5087796;28;19912;-83
2023/06/13 14:06:30;;;;;;;;;;;26.00;34.20;;;;;;5098474;28;19908;-84
2023/06/13 14:08:56;;;;;;;;;;;26.00;35.80;;;;;;5104559;28;19973;-85
2023/06/13 14:11:23;;;;;;;;;;;25.90;35.80;;;;;;5093085;28;19942;-83
2023/06/13 14:13:48;;;;;;;;;;;25.80;34.50;;;;;;5095866;28;19916;-82
2023/06/13 14:16:13;;;;;;;;;;;25.80;34.40;;;;;;5066200;28;19913;-83
2023/06/13 14:18:39;;;;;;;;;;;25.90;33.90;;;;;;5065481;28;19920;-87
2023/06/13 14:21:05;;;;;;;;;;;25.90;34.00;;;;;;5066970;28;20359;-84
2023/06/13 14:23:30;;;;;;;;;;;25.80;33.90;;;;;;5096378;28;19919;-83
2023/06/13 14:25:55;;;;;;;;;;;25.90;33.00;;;;;;5090410;28;20003;-83
2023/06/13 14:28:21;;;;;;;;;;;25.90;34.00;;;;;;5094075;28;20382;-86
2023/06/13 14:30:47;;;;;;;;;;;25.80;34.60;;;;;;5069400;28;20311;-84
2023/06/13 14:33:12;;;;;;;;;;;25.80;33.50;;;;;;5069440;28;19928;-84
2023/06/13 14:35:38;;;;;;;;;;;25.80;34.90;;;;;;5074286;28;19920;-85
2023/06/13 14:38:03;;;;;;;;;;;25.80;33.60;;;;;;5076795;28;19973;-84
2023/06/13 14:40:29;;;;;;;;;;;25.80;35.00;;;;;;5078737;28;19912;-83
2023/06/13 14:42:55;;;;;;;;;;;25.90;33.90;;;;;;5076221;28;19999;-84
2023/06/13 14:45:24;;;;;;;;;;;26.10;35.10;;;;;;5069575;28;20451;-83
2023/06/13 14:47:51;;;;;;;;;;;26.10;36.50;;;;;;5090920;28;20384;-83
2023/06/13 14:50:16;;;;;;;;;;;25.90;35.40;;;;;;5072918;28;19912;-84
2023/06/13 14:52:42;;;;;;;;;;;25.90;34.60;;;;;;5082231;28;20027;-84
2023/06/13 14:55:07;;;;;;;;;;;25.80;35.50;;;;;;5089435;28;19923;-83
2023/06/13 14:57:32;;;;;;;;;;;25.80;35.00;;;;;;5074000;28;20006;-88
2023/06/13 14:59:58;;;;;;;;;;;25.80;34.60;;;;;;5073467;28;20366;-84
2023/06/13 15:02:23;;;;;;;;;;;25.80;36.40;;;;;;5092337;28;19912;-85
2023/06/13 15:04:49;;;;;;;;;;;25.80;34.90;;;;;;5087719;28;19994;-86
2023/06/13 15:07:15;;;;;;;;;;;25.80;35.40;;;;;;5073338;28;20013;-85
2023/06/13 15:09:42;;;;;;;;;;;25.70;35.30;;;;;;5086907;28;19927;-84
2023/06/13 15:12:10;;;;;;;;;;;25.70;35.30;;;;;;5097158;28;19928;-84
2023/06/13 15:14:36;;;;;;;;;;;25.80;36.00;;;;;;5073475;28;19919;-85
2023/06/13 15:17:01;;;;;;;;;;;25.90;35.40;;;;;;5091020;28;19915;-84
2023/06/13 15:19:27;;;;;;;;;;;26.00;35.60;;;;;;5070387;28;19919;-85
2023/06/13 15:21:53;;;;;;;;;;;25.90;34.30;;;;;;5086122;28;20004;-85